Time;durP1;ratioP1;P1;durP2;ratioP2;P2;SDS_P1;SDS_P2;PMS_P1;PMS_P2;Temp;Humidity;BMP_temperature;BMP_pressure;BME280_temperature;BME280_humidity;BME280_pressure;Samples;Min_cycle;Max_cycle;Signal;HPM_P1;HPM_P2
2024/03/14 00:00:18;;;;;;;17.57;15.67;;;;;;;;;;5053341;28;21076;-71
2024/03/14 00:02:45;;;;;;;19.10;14.93;;;;;;;;;;5061962;28;20463;-70
2024/03/14 00:05:11;;;;;;;17.10;15.47;;;;;;;;;;5057734;28;20482;-70
2024/03/14 00:07:38;;;;;;;16.63;14.87;;;;;;;;;;5076092;28;20443;-71
2024/03/14 00:10:06;;;;;;;16.50;14.20;;;;;;;;;;5064275;28;20500;-71
2024/03/14 00:12:32;;;;;;;20.30;15.90;;;;;;;;;;5057366;28;20949;-71
2024/03/14 00:14:58;;;;;;;15.80;14.10;;;;;;;;;;5061746;28;21142;-68
2024/03/14 00:17:25;;;;;;;18.07;16.17;;;;;;;;;;5054663;28;20470;-69
2024/03/14 00:19:51;;;;;;;17.93;15.87;;;;;;;;;;5060095;28;20488;-68
2024/03/14 00:22:18;;;;;;;16.83;15.10;;;;;;;;;;5054614;28;20467;-69
2024/03/14 00:24:45;;;;;;;17.47;15.60;;;;;;;;;;5058033;28;20878;-68
2024/03/14 00:27:13;;;;;;;18.10;14.93;;;;;;;;;;5058139;28;20444;-69
2024/03/14 00:29:41;;;;;;;16.60;14.90;;;;;;;;;;5060956;28;20941;-69
2024/03/14 00:32:08;;;;;;;18.37;15.37;;;;;;;;;;5062882;28;20459;-69
2024/03/14 00:34:36;;;;;;;18.10;14.27;;;;;;;;;;5051273;28;20453;-69
2024/03/14 00:37:02;;;;;;;15.07;13.40;;;;;;;;;;5053097;28;20521;-69
2024/03/14 00:39:31;;;;;;;16.10;14.43;;;;;;;;;;5049362;28;20491;-69
2024/03/14 00:41:58;;;;;;;16.97;15.17;;;;;;;;;;5057866;28;20440;-70
2024/03/14 00:44:24;;;;;;;16.50;14.47;;;;;;;;;;5066391;28;20882;-70
2024/03/14 00:46:51;;;;;;;15.83;13.80;;;;;;;;;;5062374;28;20544;-70
2024/03/14 00:49:18;;;;;;;17.00;14.60;;;;;;;;;;5060086;28;20980;-70
2024/03/14 00:51:44;;;;;;;16.90;14.60;;;;;;;;;;5055548;28;20524;-69
2024/03/14 00:54:11;;;;;;;18.00;15.30;;;;;;;;;;5055220;28;20876;-70
2024/03/14 00:56:37;;;;;;;15.67;14.00;;;;;;;;;;5064350;28;21031;-71
2024/03/14 00:59:03;;;;;;;15.53;13.97;;;;;;;;;;5058669;28;20552;-71
2024/03/14 01:01:30;;;;;;;19.97;15.07;;;;;;;;;;5062335;28;20993;-71
2024/03/14 01:03:56;;;;;;;16.73;15.00;;;;;;;;;;5056970;28;20513;-70
2024/03/14 01:06:24;;;;;;;23.50;16.17;;;;;;;;;;5066137;28;20514;-70
2024/03/14 01:08:51;;;;;;;22.10;16.17;;;;;;;;;;5055745;28;21226;-70
2024/03/14 01:11:18;;;;;;;16.43;14.77;;;;;;;;;;5062599;28;20476;-71
2024/03/14 01:13:44;;;;;;;20.37;16.77;;;;;;;;;;5057804;28;20479;-71
2024/03/14 01:16:10;;;;;;;16.00;14.30;;;;;;;;;;5059568;28;20455;-70
2024/03/14 01:18:39;;;;;;;24.73;16.10;;;;;;;;;;5059840;28;20494;-71
2024/03/14 01:21:07;;;;;;;20.40;16.30;;;;;;;;;;5053528;28;20521;-70
2024/03/14 01:23:34;;;;;;;19.10;14.60;;;;;;;;;;5061569;28;20463;-70
2024/03/14 01:26:01;;;;;;;16.80;15.00;;;;;;;;;;5055157;28;21224;-70
2024/03/14 01:28:29;;;;;;;16.63;14.20;;;;;;;;;;5060544;28;20980;-71
2024/03/14 01:30:58;;;;;;;17.10;13.30;;;;;;;;;;5060418;28;20490;-71
2024/03/14 01:33:25;;;;;;;18.83;14.60;;;;;;;;;;5060955;28;20452;-72
2024/03/14 01:35:54;;;;;;;16.23;14.30;;;;;;;;;;5055105;28;20488;-72
2024/03/14 01:38:21;;;;;;;16.13;14.43;;;;;;;;;;5057032;28;20452;-71
2024/03/14 01:40:47;;;;;;;20.37;16.20;;;;;;;;;;5065436;28;20471;-70
2024/03/14 01:43:14;;;;;;;17.37;15.60;;;;;;;;;;5059084;28;20451;-69
2024/03/14 01:45:41;;;;;;;18.13;15.83;;;;;;;;;;5058608;28;20559;-69
2024/03/14 01:48:07;;;;;;;18.20;15.33;;;;;;;;;;5050435;28;20457;-69
2024/03/14 01:50:34;;;;;;;18.97;15.33;;;;;;;;;;5065231;28;20903;-68
2024/03/14 01:53:00;;;;;;;17.50;15.27;;;;;;;;;;5067976;28;20959;-69
2024/03/14 01:55:27;;;;;;;19.37;16.10;;;;;;;;;;5060034;28;20516;-69
2024/03/14 01:57:53;;;;;;;15.47;13.63;;;;;;;;;;5067757;28;21205;-70
2024/03/14 02:00:20;;;;;;;19.20;15.40;;;;;;;;;;5063677;28;20473;-70
2024/03/14 02:02:50;;;;;;;20.97;16.23;;;;;;;;;;5054334;28;20513;-69
2024/03/14 02:05:18;;;;;;;16.13;14.43;;;;;;;;;;5066421;28;20510;-69
2024/03/14 02:07:45;;;;;;;19.13;16.30;;;;;;;;;;5077936;28;20529;-70
2024/03/14 02:10:13;;;;;;;17.80;15.70;;;;;;;;;;5060058;28;20823;-70
2024/03/14 02:12:39;;;;;;;19.33;14.90;;;;;;;;;;5062111;28;20493;-70
2024/03/14 02:15:06;;;;;;;17.13;14.57;;;;;;;;;;5062023;28;20993;-70
2024/03/14 02:17:32;;;;;;;18.03;15.23;;;;;;;;;;5056097;28;20547;-70
2024/03/14 02:19:59;;;;;;;15.43;13.87;;;;;;;;;;5059129;28;20452;-71
2024/03/14 02:22:27;;;;;;;19.57;15.70;;;;;;;;;;5069221;28;20496;-70
2024/03/14 02:24:53;;;;;;;21.63;16.77;;;;;;;;;;5074598;28;20523;-71
2024/03/14 02:27:20;;;;;;;18.50;14.93;;;;;;;;;;5071827;28;20498;-70
2024/03/14 02:29:46;;;;;;;23.27;16.00;;;;;;;;;;5058479;28;20467;-70
2024/03/14 02:32:12;;;;;;;19.37;16.27;;;;;;;;;;5064313;28;20487;-69
2024/03/14 02:34:39;;;;;;;19.57;16.07;;;;;;;;;;5077345;28;20527;-69
2024/03/14 02:37:05;;;;;;;18.50;15.40;;;;;;;;;;5063050;28;20525;-68
2024/03/14 02:39:34;;;;;;;19.23;15.30;;;;;;;;;;5061590;28;20896;-68
2024/03/14 02:42:00;;;;;;;21.53;15.50;;;;;;;;;;5070926;28;20529;-69
2024/03/14 02:44:27;;;;;;;16.53;14.33;;;;;;;;;;5058404;28;20455;-70
2024/03/14 02:46:53;;;;;;;18.33;13.97;;;;;;;;;;5055780;28;20514;-70
2024/03/14 02:49:20;;;;;;;21.53;16.23;;;;;;;;;;5059568;28;20485;-69
2024/03/14 02:51:47;;;;;;;24.97;16.40;;;;;;;;;;5063963;28;20511;-69
2024/03/14 02:54:15;;;;;;;18.83;16.60;;;;;;;;;;5061698;28;20475;-71
2024/03/14 02:56:41;;;;;;;17.03;14.27;;;;;;;;;;5060880;28;20498;-70
2024/03/14 02:59:09;;;;;;;17.47;15.67;;;;;;;;;;5062669;28;20487;-70
2024/03/14 03:01:37;;;;;;;22.33;14.90;;;;;;;;;;5051180;28;21041;-69
2024/03/14 03:04:04;;;;;;;21.30;15.97;;;;;;;;;;5056997;28;20456;-69
2024/03/14 03:06:30;;;;;;;20.60;17.00;;;;;;;;;;5058323;28;20549;-69
2024/03/14 03:08:57;;;;;;;17.47;15.10;;;;;;;;;;5060010;28;20495;-69
2024/03/14 03:11:24;;;;;;;17.53;14.73;;;;;;;;;;5079327;28;20586;-69
2024/03/14 03:13:50;;;;;;;19.67;14.43;;;;;;;;;;5078408;28;20555;-69
2024/03/14 03:16:17;;;;;;;19.53;14.67;;;;;;;;;;5060499;28;20986;-69
2024/03/14 03:18:43;;;;;;;19.00;15.20;;;;;;;;;;5051322;28;20510;-68
2024/03/14 03:21:09;;;;;;;18.47;15.70;;;;;;;;;;5072517;28;20544;-68
2024/03/14 03:23:35;;;;;;;20.77;15.33;;;;;;;;;;5064017;28;20444;-68
2024/03/14 03:26:05;;;;;;;17.80;15.23;;;;;;;;;;5054795;28;21032;-69
2024/03/14 03:28:31;;;;;;;22.80;16.70;;;;;;;;;;5074401;28;20201;-68
2024/03/14 03:30:57;;;;;;;21.47;15.77;;;;;;;;;;5066081;28;20458;-68
2024/03/14 03:33:24;;;;;;;20.70;16.57;;;;;;;;;;5060446;28;20657;-69
2024/03/14 03:35:49;;;;;;;21.50;15.80;;;;;;;;;;5054094;28;20513;-69
2024/03/14 03:38:16;;;;;;;21.60;17.20;;;;;;;;;;5058776;28;20480;-69
2024/03/14 03:40:43;;;;;;;18.70;15.60;;;;;;;;;;5059483;28;20251;-68
2024/03/14 03:43:09;;;;;;;17.87;15.47;;;;;;;;;;5057006;28;20476;-68
2024/03/14 03:45:35;;;;;;;26.53;16.33;;;;;;;;;;5073394;28;20475;-68
2024/03/14 03:48:01;;;;;;;20.70;15.57;;;;;;;;;;5060314;28;21263;-68
2024/03/14 03:50:27;;;;;;;19.13;14.70;;;;;;;;;;5054553;28;20229;-69
2024/03/14 03:52:54;;;;;;;17.57;15.37;;;;;;;;;;5057654;28;20448;-69
2024/03/14 03:55:19;;;;;;;17.93;15.13;;;;;;;;;;5060289;28;20542;-69
2024/03/14 03:57:46;;;;;;;20.33;15.83;;;;;;;;;;5060509;28;20519;-70
2024/03/14 04:02:57;;;;;;;18.33;15.80;;;;;;;;;;5063094;28;20517;-70
2024/03/14 04:05:25;;;;;;;19.23;17.07;;;;;;;;;;5055817;28;20471;-68
2024/03/14 04:07:51;;;;;;;22.77;16.70;;;;;;;;;;5070456;28;20828;-68
2024/03/14 04:10:17;;;;;;;22.93;16.27;;;;;;;;;;5050051;28;20457;-69
2024/03/14 04:12:44;;;;;;;20.13;16.97;;;;;;;;;;5050463;28;20855;-69
2024/03/14 04:15:10;;;;;;;19.00;16.30;;;;;;;;;;5059462;28;20217;-69
2024/03/14 04:17:37;;;;;;;18.70;15.90;;;;;;;;;;5054934;28;20483;-69
2024/03/14 04:20:10;;;;;;;19.60;16.30;;;;;;;;;;5059198;28;20517;-69
2024/03/14 04:22:37;;;;;;;20.23;16.10;;;;;;;;;;5059067;28;20451;-69
2024/03/14 04:25:10;;;;;;;18.03;15.57;;;;;;;;;;5056966;28;20483;-70
2024/03/14 04:27:36;;;;;;;23.57;17.50;;;;;;;;;;5049697;28;20476;-70
2024/03/14 04:30:05;;;;;;;21.07;18.07;;;;;;;;;;5070819;28;20498;-70
2024/03/14 04:32:32;;;;;;;27.63;15.90;;;;;;;;;;5060550;28;20470;-70
2024/03/14 04:34:59;;;;;;;18.63;16.13;;;;;;;;;;5057785;28;20945;-69
2024/03/14 04:37:25;;;;;;;19.47;16.80;;;;;;;;;;5068477;28;20448;-69
2024/03/14 04:39:52;;;;;;;19.37;16.50;;;;;;;;;;5062412;28;20454;-68
2024/03/14 04:42:20;;;;;;;18.60;15.63;;;;;;;;;;5057142;28;20492;-70
2024/03/14 04:44:46;;;;;;;18.80;15.50;;;;;;;;;;5054603;28;20452;-69
2024/03/14 04:47:13;;;;;;;18.87;15.87;;;;;;;;;;5051835;28;20491;-69
2024/03/14 04:49:40;;;;;;;20.20;16.10;;;;;;;;;;5057825;28;21071;-69
2024/03/14 04:52:07;;;;;;;22.73;17.40;;;;;;;;;;5071538;28;20460;-69
2024/03/14 04:54:33;;;;;;;21.73;16.37;;;;;;;;;;5066197;28;20559;-70
2024/03/14 04:57:01;;;;;;;21.83;16.10;;;;;;;;;;5062784;28;20513;-70
2024/03/14 04:59:27;;;;;;;21.30;15.97;;;;;;;;;;5059959;28;21004;-70
2024/03/14 05:01:54;;;;;;;24.53;17.27;;;;;;;;;;5046428;28;20469;-71
2024/03/14 05:04:21;;;;;;;23.53;17.23;;;;;;;;;;5083006;28;20542;-71
2024/03/14 05:06:48;;;;;;;20.50;17.63;;;;;;;;;;5063655;28;20560;-71
2024/03/14 05:09:14;;;;;;;21.20;17.10;;;;;;;;;;5073987;28;20529;-71
2024/03/14 05:11:41;;;;;;;23.37;15.60;;;;;;;;;;5058985;28;20452;-70
2024/03/14 05:14:08;;;;;;;1360.53;674.33;;;;;;;;;;5059666;28;20454;-70
2024/03/14 05:16:34;;;;;;;105.63;18.83;;;;;;;;;;5059992;28;20551;-71
2024/03/14 05:19:01;;;;;;;1999.90;999.90;;;;;;;;;;5082104;28;20475;-70
2024/03/14 05:21:27;;;;;;;1999.90;999.90;;;;;;;;;;5064102;28;20448;-69
2024/03/14 05:23:54;;;;;;;1999.90;999.90;;;;;;;;;;5059981;28;20451;-69
2024/03/14 05:26:21;;;;;;;1999.90;999.90;;;;;;;;;;5074361;28;20551;-70
2024/03/14 05:28:47;;;;;;;1999.90;999.90;;;;;;;;;;5064159;28;20483;-70
2024/03/14 05:31:13;;;;;;;1999.90;999.90;;;;;;;;;;5062422;28;20492;-70
2024/03/14 05:33:42;;;;;;;1999.90;999.90;;;;;;;;;;5073547;28;20475;-70
2024/03/14 05:36:08;;;;;;;1999.90;999.90;;;;;;;;;;5062486;28;20452;-70
2024/03/14 05:38:35;;;;;;;1999.90;999.90;;;;;;;;;;5060224;28;20460;-70
2024/03/14 05:41:01;;;;;;;147.33;58.43;;;;;;;;;;5066508;28;20478;-69
2024/03/14 05:43:27;;;;;;;1999.90;999.90;;;;;;;;;;5064311;28;20512;-70
2024/03/14 05:45:54;;;;;;;1999.90;999.90;;;;;;;;;;5068526;28;20475;-69
2024/03/14 05:48:23;;;;;;;1999.90;999.90;;;;;;;;;;5067696;28;20520;-70
2024/03/14 05:50:49;;;;;;;1999.90;999.90;;;;;;;;;;5059734;28;20529;-70
2024/03/14 05:53:16;;;;;;;1999.90;999.90;;;;;;;;;;5068384;28;20474;-72
2024/03/14 05:55:42;;;;;;;1999.90;999.90;;;;;;;;;;5064767;28;21113;-70
2024/03/14 05:58:09;;;;;;;1999.90;999.90;;;;;;;;;;5073380;28;21333;-70
2024/03/14 06:00:35;;;;;;;1999.90;999.90;;;;;;;;;;5059085;28;20543;-70
2024/03/14 06:03:02;;;;;;;1999.90;999.90;;;;;;;;;;5062350;28;20479;-69
2024/03/14 06:05:30;;;;;;;1999.90;999.90;;;;;;;;;;5081020;28;20460;-70
2024/03/14 06:07:57;;;;;;;1999.90;999.90;;;;;;;;;;5067576;28;20479;-80
2024/03/14 06:10:23;;;;;;;1999.90;999.90;;;;;;;;;;5068615;28;20463;-70
2024/03/14 06:12:50;;;;;;;1999.90;999.90;;;;;;;;;;5062357;28;20455;-71
2024/03/14 06:15:17;;;;;;;1999.90;999.90;;;;;;;;;;5048235;28;20465;-70
2024/03/14 06:17:44;;;;;;;1999.90;999.90;;;;;;;;;;5081330;28;20460;-71
2024/03/14 06:20:12;;;;;;;1999.90;999.90;;;;;;;;;;5064330;28;20463;-71
2024/03/14 06:22:44;;;;;;;1999.90;999.90;;;;;;;;;;5055884;28;20481;-71
2024/03/14 06:25:10;;;;;;;1999.90;999.90;;;;;;;;;;5059242;28;20751;-71
2024/03/14 06:27:37;;;;;;;1999.90;999.90;;;;;;;;;;5078482;28;20480;-71
2024/03/14 06:30:04;;;;;;;1999.90;999.90;;;;;;;;;;5062089;28;20451;-71
2024/03/14 06:32:31;;;;;;;1999.90;999.90;;;;;;;;;;5048955;28;20472;-71
2024/03/14 06:34:57;;;;;;;1999.90;999.90;;;;;;;;;;5082450;28;20448;-71
2024/03/14 06:37:25;;;;;;;1999.90;999.90;;;;;;;;;;5059937;28;20459;-71
2024/03/14 06:39:52;;;;;;;1999.90;999.90;;;;;;;;;;5047733;28;20456;-71
2024/03/14 06:42:20;;;;;;;1999.90;999.90;;;;;;;;;;5070835;28;21000;-71
2024/03/14 06:44:47;;;;;;;1999.90;999.90;;;;;;;;;;5068224;28;20527;-71
2024/03/14 06:47:14;;;;;;;1999.90;999.90;;;;;;;;;;5052757;28;20511;-71
2024/03/14 06:49:42;;;;;;;1999.90;999.90;;;;;;;;;;5058104;28;20520;-71
2024/03/14 06:52:09;;;;;;;1999.90;999.90;;;;;;;;;;5058193;28;20456;-71
2024/03/14 06:54:36;;;;;;;1999.90;999.90;;;;;;;;;;5062561;28;20455;-71
2024/03/14 06:57:03;;;;;;;1999.90;999.90;;;;;;;;;;5053356;28;20463;-71
2024/03/14 06:59:29;;;;;;;1999.90;999.90;;;;;;;;;;5061619;28;20483;-70
2024/03/14 07:01:56;;;;;;;1999.90;999.90;;;;;;;;;;5057238;28;20866;-70
2024/03/14 07:04:22;;;;;;;1999.90;999.90;;;;;;;;;;5076271;28;20467;-70
2024/03/14 07:06:48;;;;;;;560.87;509.20;;;;;;;;;;5060577;28;21505;-67
2024/03/14 07:09:17;;;;;;;606.97;488.83;;;;;;;;;;5058645;28;21079;-67
2024/03/14 07:11:45;;;;;;;289.63;131.57;;;;;;;;;;5055760;28;20832;-66
2024/03/14 07:14:12;;;;;;;72.77;19.57;;;;;;;;;;5058185;28;20490;-67
2024/03/14 07:16:39;;;;;;;866.77;487.97;;;;;;;;;;5058074;28;20524;-67
2024/03/14 07:19:06;;;;;;;1403.30;694.10;;;;;;;;;;5055468;28;20463;-66
2024/03/14 07:21:33;;;;;;;1999.90;999.90;;;;;;;;;;5076975;28;20451;-66
2024/03/14 07:24:00;;;;;;;1999.90;999.90;;;;;;;;;;5057714;28;20493;-66
2024/03/14 07:26:32;;;;;;;604.30;191.57;;;;;;;;;;5059617;28;20511;-67
2024/03/14 07:28:58;;;;;;;1999.90;999.90;;;;;;;;;;5074431;28;20459;-67
2024/03/14 07:31:28;;;;;;;1999.90;999.90;;;;;;;;;;5062381;28;20455;-70
2024/03/14 07:33:54;;;;;;;100.07;16.90;;;;;;;;;;5060234;28;20460;-70
2024/03/14 07:36:24;;;;;;;6.90;4.20;;;;;;;;;;5045571;28;20512;-70
2024/03/14 07:38:50;;;;;;;7.37;4.50;;;;;;;;;;5059184;28;20460;-71
2024/03/14 07:41:19;;;;;;;1999.90;999.90;;;;;;;;;;5056420;28;20456;-71
2024/03/14 07:43:46;;;;;;;193.63;76.30;;;;;;;;;;5057086;28;20456;-71
2024/03/14 07:46:13;;;;;;;20.20;18.47;;;;;;;;;;5061829;28;20476;-71
2024/03/14 07:48:41;;;;;;;17.30;15.70;;;;;;;;;;5071172;28;20481;-70
2024/03/14 07:51:08;;;;;;;15.80;14.10;;;;;;;;;;5055090;28;20487;-71
2024/03/14 07:53:34;;;;;;;16.27;13.87;;;;;;;;;;5077230;28;20447;-71
2024/03/14 07:56:01;;;;;;;17.07;15.47;;;;;;;;;;5062446;28;21146;-73
2024/03/14 07:58:28;;;;;;;15.37;13.90;;;;;;;;;;5060296;28;20503;-72
2024/03/14 08:00:55;;;;;;;17.37;15.70;;;;;;;;;;5077719;28;20476;-74
2024/03/14 08:03:22;;;;;;;18.13;16.53;;;;;;;;;;5052085;28;20524;-65
2024/03/14 08:05:50;;;;;;;16.97;15.57;;;;;;;;;;5060133;28;20467;-65
2024/03/14 08:08:17;;;;;;;18.23;16.60;;;;;;;;;;5062658;28;20476;-66
2024/03/14 08:10:45;;;;;;;19.00;17.27;;;;;;;;;;5058609;28;20471;-67
2024/03/14 08:13:17;;;;;;;17.20;15.80;;;;;;;;;;5067850;28;20462;-68
2024/03/14 08:15:52;;;;;;;17.43;15.73;;;;;;;;;;5053836;28;20483;-67
2024/03/14 08:18:20;;;;;;;18.00;16.33;;;;;;;;;;5065490;28;20475;-65
2024/03/14 08:20:47;;;;;;;17.27;15.67;;;;;;;;;;5054395;28;20554;-67
2024/03/14 08:23:15;;;;;;;16.33;15.00;;;;;;;;;;5063636;28;20456;-69
2024/03/14 08:25:42;;;;;;;16.97;15.37;;;;;;;;;;5052752;28;20451;-66
2024/03/14 08:28:08;;;;;;;15.00;13.73;;;;;;;;;;5076801;28;20508;-66
2024/03/14 08:30:36;;;;;;;16.10;14.70;;;;;;;;;;5061419;28;20516;-66
2024/03/14 08:33:03;;;;;;;15.87;14.57;;;;;;;;;;5056788;28;20467;-69
2024/03/14 08:35:29;;;;;;;16.40;14.90;;;;;;;;;;5066715;28;20452;-69
2024/03/14 08:37:56;;;;;;;16.27;14.90;;;;;;;;;;5065041;28;20439;-68
2024/03/14 08:40:23;;;;;;;17.00;15.50;;;;;;;;;;5061284;28;20480;-64
2024/03/14 08:42:49;;;;;;;15.77;14.47;;;;;;;;;;5081634;28;20495;-66
2024/03/14 08:45:16;;;;;;;15.83;14.43;;;;;;;;;;5060342;28;20463;-64
2024/03/14 08:47:44;;;;;;;16.97;15.27;;;;;;;;;;5065428;28;20519;-65
2024/03/14 08:50:10;;;;;;;16.73;15.30;;;;;;;;;;5054862;28;20482;-67
2024/03/14 08:52:38;;;;;;;16.87;15.17;;;;;;;;;;5073676;28;20454;-63
2024/03/14 08:55:23;;;;;;;15.73;14.23;;;;;;;;;;5065388;28;20514;-70
2024/03/14 08:57:49;;;;;;;16.17;14.60;;;;;;;;;;5042023;28;20569;-66
2024/03/14 09:00:17;;;;;;;16.07;14.77;;;;;;;;;;5053244;28;20480;-65
2024/03/14 09:02:44;;;;;;;16.83;15.20;;;;;;;;;;5070551;28;20470;-68
2024/03/14 09:05:12;;;;;;;17.20;15.50;;;;;;;;;;5071908;28;20494;-69
2024/03/14 09:07:40;;;;;;;16.07;14.83;;;;;;;;;;5060949;28;20475;-66
2024/03/14 09:10:15;;;;;;;16.53;15.13;;;;;;;;;;5054905;28;20499;-65
2024/03/14 09:12:43;;;;;;;16.10;14.60;;;;;;;;;;5070268;28;20486;-68
2024/03/14 09:15:11;;;;;;;16.13;14.70;;;;;;;;;;5054061;28;20922;-68
2024/03/14 09:17:37;;;;;;;16.30;14.60;;;;;;;;;;5051855;28;20458;-66
2024/03/14 09:20:06;;;;;;;16.53;15.07;;;;;;;;;;5074191;28;20459;-63
2024/03/14 09:22:32;;;;;;;15.43;14.13;;;;;;;;;;5065881;28;20477;-64
2024/03/14 09:25:01;;;;;;;15.83;14.40;;;;;;;;;;5078565;28;20532;-64
2024/03/14 09:27:27;;;;;;;16.00;14.60;;;;;;;;;;5063940;28;20471;-65
2024/03/14 09:29:55;;;;;;;16.23;14.73;;;;;;;;;;5081527;28;20444;-65
2024/03/14 09:32:23;;;;;;;15.53;14.03;;;;;;;;;;5054664;28;20473;-65
2024/03/14 09:34:50;;;;;;;16.03;14.53;;;;;;;;;;5078321;28;20925;-63
2024/03/14 09:37:16;;;;;;;16.33;14.77;;;;;;;;;;5066411;28;20521;-64
2024/03/14 09:39:43;;;;;;;15.30;13.80;;;;;;;;;;5076493;28;20453;-65
2024/03/14 09:42:09;;;;;;;15.90;14.50;;;;;;;;;;5063346;28;20435;-65
2024/03/14 09:44:36;;;;;;;14.97;13.70;;;;;;;;;;5061746;28;21331;-64
2024/03/14 09:47:03;;;;;;;16.60;14.00;;;;;;;;;;5062374;28;20483;-65
2024/03/14 09:49:29;;;;;;;15.30;13.90;;;;;;;;;;5063232;28;20491;-65
2024/03/14 09:51:56;;;;;;;15.90;14.60;;;;;;;;;;5059489;28;20499;-64
2024/03/14 09:54:26;;;;;;;15.13;13.70;;;;;;;;;;5074198;28;20452;-66
2024/03/14 09:56:53;;;;;;;15.63;14.30;;;;;;;;;;5059703;28;20467;-66
2024/03/14 09:59:20;;;;;;;15.73;14.40;;;;;;;;;;5070700;28;20507;-66
2024/03/14 10:01:46;;;;;;;15.23;13.93;;;;;;;;;;5051470;28;20491;-66
2024/03/14 10:04:13;;;;;;;15.73;14.30;;;;;;;;;;5063285;28;20558;-67
2024/03/14 10:06:41;;;;;;;14.77;13.53;;;;;;;;;;5068395;28;20451;-68
2024/03/14 10:09:11;;;;;;;15.00;13.80;;;;;;;;;;5079480;28;20499;-68
2024/03/14 10:11:38;;;;;;;15.40;14.30;;;;;;;;;;5061972;28;21363;-67
2024/03/14 10:14:16;;;;;;;15.37;14.07;;;;;;;;;;5062614;28;20463;-68
2024/03/14 10:16:42;;;;;;;15.20;13.73;;;;;;;;;;5082058;28;20985;-72
2024/03/14 10:19:09;;;;;;;15.07;13.90;;;;;;;;;;5062219;28;20444;-72
2024/03/14 10:21:36;;;;;;;14.67;13.53;;;;;;;;;;5058701;28;20478;-72
2024/03/14 10:24:03;;;;;;;14.53;13.30;;;;;;;;;;5052601;28;20476;-64
2024/03/14 10:26:30;;;;;;;14.37;13.17;;;;;;;;;;5062833;28;20447;-68
2024/03/14 10:28:57;;;;;;;13.90;12.70;;;;;;;;;;5061282;28;21301;-65
2024/03/14 10:31:24;;;;;;;12.70;11.50;;;;;;;;;;5065033;28;20459;-67
2024/03/14 10:33:51;;;;;;;14.37;13.00;;;;;;;;;;5055394;28;20468;-66
2024/03/14 10:36:18;;;;;;;14.10;12.83;;;;;;;;;;5055837;28;20452;-65
2024/03/14 10:38:45;;;;;;;15.83;14.63;;;;;;;;;;5060603;28;20456;-65
2024/03/14 10:41:12;;;;;;;15.87;14.53;;;;;;;;;;5077645;28;20455;-66
